Diese Webseite verwendet Cookies

Diese Seite verwendet Cookies, um Ihnen dieses Angebot leicht zugänglich zu machen, Inhalte zu personalisieren, Ihre Zugriffe auf die Webseite zu analysieren und Ihnen ggf. personalisierte Angebote unterbreiten zu können. Hierzu kann es notwendig sein, dass die Informationen über Ihre Verwendung der Webseite an Partner weitergegeben werden. Diese führen die gesammelten Informationen möglicherweise mit weiteren Daten zusammen, die Sie an anderer Stelle bereitgestellt haben. Eine Weitergabe erfolgt dabei aber nur mit Ihrer Einwilligung und unter Beachtung der datenschutzrechtlichen Vorgaben. Weiterführende Informationen über die hier verwendeten Cookies erfahren Sie in den folgenden Erklärungen zu den jeweiligen Cookies.

Notwendige Cookies helfen dabei, Ihnen die Funktionen der Webseite zugängig zu machen, indem sie Grundfunktionen die zuletzt angesehen Wertpapiere und Ihre Entscheidung für oder gegen die Nutzung der jeweiligen Cookies speichert. Die Webseite wird ohne diese Cookies nicht so funktionieren, wie es geplant ist.

Name Anbieter Zweck Ablauf Typ Verantwortlicher
CookieConsent3473 Moneyspecial Um diese Cookiebar auszublenden. 1 Jahr http Infront Financial Technology GmbH
Die Cookie-Erklärung wurde das letzte Mal am 21.08.2020 von Infront Financial Technology GmbH aktualisiert.
Drucken

Indexkurslisten

ZeitKursKurs (Vortag)% (Vortag)Kurs (1 Jahr)% (1 Jahr)
Gewinner
CF INDS HLDGS ... 24.01.22 58,00 56,00 +3,57 35,412 +61,06%
CITRIX 24.01.22 90,78 89,29 +1,67 -12,172 -13,41%
SALESFORCE 24.01.22 196,46 193,38 +1,59 11,621 +5,92%
CLOROX 24.01.22 160,15 157,75 +1,52 -0,034 -0,02%
AUTOZONE INC. ... 24.01.22 1.715,00 1.698,00 +1,00 1.158,277 +67,54%
BEST BUY 24.01.22 86,10 85,28 +0,96 -5,916 -6,87%
NRG ENERGY INC. ... 24.01.22 34,27 34,00 +0,79 1,572 +4,59%
AMAZON 24.01.22 2.541,00 2.532,50 +0,34 -172,534 -6,79%
LAS VEGAS SANDS ... 24.01.22 39,02 38,91 +0,28 -4,920 -12,61%
BAXTER 24.01.22 75,64 75,46 +0,24 12,732 +16,83%
CISCO 24.01.22 50,04 49,94 +0,19 19,113 +38,20%

Verlierer
SIGNATURE BANK ... 24.01.22 260,00 294,00 -11,56 -- --%
BLACKROCK CL. A DL... 24.01.22 672,60 720,40 -6,64 137,997 +20,52%
BK OF NY MELLON 24.01.22 49,08 52,54 -6,59 27,299 +55,62%
CHIPOTLE MEX.GR. DL... 24.01.22 1.172,50 1.251,00 -6,27 30,579 +2,61%
SVB FINL GROUP ... 24.01.22 512,80 544,60 -5,84 233,909 +45,61%
AES 24.01.22 19,30 20,45 -5,60 -1,207 -6,25%
AMD 24.01.22 101,94 107,52 -5,19 44,006 +43,17%
BOEING 24.01.22 174,16 182,88 -4,77 12,776 +7,34%
MASTERCARD 24.01.22 302,95 317,00 -4,43 48,251 +15,93%
ALASKA AIR GRP INC. ... 24.01.22 44,58 46,50 -4,13 1,328 +2,98%
COMERICA 24.01.22 78,98 82,14 -3,85 52,959 +67,05%
FIDELITY NATL INF... 24.01.22 96,50 100,35 -3,84 -6,763 -7,01%
DOMINOS PIZZA INC... 24.01.22 383,80 398,20 -3,62 109,751 +28,60%
BROWN + BROWN ... 24.01.22 54,50 56,50 -3,54 -- --%
BOSTON PROPERTIES... 24.01.22 97,50 101,00 -3,47 37,612 +38,58%
AVERY DENNISON ... 24.01.22 172,00 178,00 -3,37 64,706 +37,62%
CENTERPOINT ENERGY... 24.01.22 23,40 24,20 -3,31 9,835 +42,03%
TRANSDIGM GROUP ... 24.01.22 526,80 544,40 -3,23 81,575 +15,49%
BRISTOL MYERS 24.01.22 54,54 56,25 -3,04 5,032 +9,23%
CAPITAL ONE 24.01.22 128,00 132,00 -3,03 65,170 +50,91%
AMERIPRISE 24.01.22 264,00 272,00 -2,94 155,889 +59,05%
FRANKLIN RES INC. ... 24.01.22 27,40 28,23 -2,94 9,032 +32,96%
AVALONBAY COMM. ... 24.01.22 208,00 214,00 -2,80 129,145 +62,09%
CELANESE CORP... 24.01.22 139,00 143,00 -2,80 46,765 +33,64%
AUTOM. DATA 24.01.22 187,00 192,34 -2,78 90,192 +48,23%
HESS CORP. ... 24.01.22 75,38 77,50 -2,74 43,953 +58,31%
AMER. EXPRESS 24.01.22 137,70 141,55 -2,72 50,343 +36,56%
ARCHER DANIELS 24.01.22 59,16 60,80 -2,70 25,981 +43,92%
ALBEMARLE CORP. ... 24.01.22 179,00 183,95 -2,69 50,337 +28,12%
BOSTON SCIENT. 24.01.22 36,91 37,93 -2,69 8,449 +22,89%
CMS ENERGY CORP. ... 24.01.22 54,50 56,00 -2,68 10,949 +20,09%
AMEREN CORP. ... 24.01.22 75,00 77,00 -2,60 24,687 +32,92%
ANALOG DEVICES 24.01.22 137,72 141,36 -2,57 13,622 +9,89%
CARNIVAL 24.01.22 17,17 17,60 -2,45 0,477 +2,78%
ABBOTT LABS 24.01.22 107,75 110,40 -2,40 21,767 +20,20%
BK OF AMERICA 24.01.22 39,12 40,07 -2,38 21,970 +56,16%
EXTRA SPACE ST.SBI... 24.01.22 167,95 171,95 -2,33 149,334 +88,92%
CADENCE DESIGN SYS... 24.01.22 128,56 131,62 -2,32 20,210 +15,72%
AIR PROD. CHEM. ... 24.01.22 244,40 250,00 -2,24 24,374 +9,97%
CENTENE CORP. ... 24.01.22 67,00 68,50 -2,19 22,116 +33,01%
ATMOS EN. CORP. 24.01.22 90,50 92,50 -2,16 26,477 +29,26%
CHEVRON 24.01.22 110,14 112,56 -2,15 60,412 +54,85%
BROADRIDGE FINL... 24.01.22 138,00 141,00 -2,13 21,300 +15,44%
AMGEN 24.01.22 196,56 200,75 -2,09 -0,118 -0,06%
AMETEK INC. ... 24.01.22 117,95 120,40 -2,03 27,489 +23,31%
BALL CORP. 24.01.22 75,78 77,34 -2,02 2,445 +3,23%
BIO-RAD LABS... 24.01.22 500,00 510,00 -1,96 20,405 +4,08%
CME GROUP 24.01.22 199,12 202,90 -1,86 73,856 +37,09%
CUMMINS INC. DL... 24.01.22 194,00 197,65 -1,85 0,308 +0,16%
AT&T 24.01.22 23,06 23,49 -1,83 1,414 +6,13%
BIOGEN 24.01.22 193,12 196,72 -1,83 -22,029 -11,41%
AMERISOURCEBERGEN ... 24.01.22 114,00 116,00 -1,72 43,024 +37,74%
BECTON DICKINSN 24.01.22 229,30 233,20 -1,67 22,623 +9,87%
DIGITAL REALTY TR... 24.01.22 135,35 137,45 -1,53 30,073 +22,22%
BORGWARNER INC. ... 24.01.22 38,80 39,40 -1,52 7,375 +19,01%
SMITH -A.O.- CORP. ... 24.01.22 67,48 68,52 -1,52 31,043 +46,00%
DEXCOM INC. ... 24.01.22 370,30 376,00 -1,52 92,419 +24,96%
CATERPILLAR 24.01.22 185,15 187,95 -1,49 39,689 +21,44%
MARKETAXESS HLDGS... 24.01.22 315,50 320,10 -1,44 -74,868 -23,73%
COLGATE PALMO. 24.01.22 73,08 74,14 -1,43 12,538 +17,16%
ALTRIA 24.01.22 43,51 44,14 -1,43 16,384 +37,66%
CONOCOPHILLIPS 24.01.22 72,21 73,25 -1,42 78,312 +108,45%
AFLAC 24.01.22 53,88 54,64 -1,39 25,237 +46,84%
APPLIED MATLS 24.01.22 118,54 120,12 -1,32 43,389 +36,60%
MOLSON COORS BEV B... 24.01.22 42,79 43,35 -1,29 2,736 +6,39%
ADOBE 24.01.22 443,05 448,40 -1,19 69,297 +15,64%
BROWN-FORMAN CORP B... 24.01.22 57,86 58,54 -1,16 -0,138 -0,24%
AGILENT 24.01.22 121,80 123,20 -1,14 22,874 +18,78%
CARDINAL HEALTH... 24.01.22 44,18 44,67 -1,10 1,527 +3,46%
CH ROBINSON 24.01.22 92,50 93,50 -1,07 17,322 +18,73%
CINTAS 24.01.22 332,80 336,20 -1,01 82,548 +24,80%
COCA COLA 24.01.22 52,95 53,49 -1,01 19,620 +37,05%
ADVANCE AUTO PA... 24.01.22 200,00 202,00 -0,99 101,778 +50,89%
CINCINNATI FINL ... 24.01.22 101,00 102,00 -0,98 37,574 +37,20%
GALLAGHER , A.J. ... 24.01.22 135,00 136,00 -0,74 55,902 +41,41%
UNDER ARMOUR A... 24.01.22 16,60 16,72 -0,72 1,483 +8,93%
COMCAST 24.01.22 43,75 44,06 -0,70 4,891 +11,18%
BERKLEY CORP. ... 24.01.22 73,00 73,50 -0,68 28,096 +38,49%
APPLE 24.01.22 142,80 143,72 -0,64 40,751 +28,54%
AMER. ELEC PWR 24.01.22 79,12 79,56 -0,55 18,990 +24,00%
REGIONS FINL 24.01.22 19,60 19,70 -0,51 7,654 +39,05%
MONOLITHIC POWER ... 24.01.22 350,90 352,60 -0,48 26,216 +7,47%
SCHLUMBERGER 24.01.22 31,95 32,10 -0,47 19,711 +61,69%
CHURCH + DWIGHT CO... 24.01.22 90,48 90,88 -0,44 28,579 +31,59%
CONAGRA FOODS 24.01.22 31,00 31,10 -0,32 4,726 +15,25%
POOL CORP. ... 24.01.22 416,60 417,50 -0,22 167,115 +40,11%
CERNER CORP. ... 24.01.22 80,76 80,78 -0,02 19,747 +24,45%

Mehr Marktdaten und Kurse finden Sie auf www.finanztreff.de

Angebote der
Nutzungshinweise | Datenschutz | Impressum | Datenquellen: boerse-stuttgart.de,